Raber, Indiana
Current Conditions -  °F | °C
As of 4:54 PM on Sunday 21 Dec 2014 (Local Time) from KFWA Reporting Station
Haze Haze  
Wind Chill: 27°   Ceiling: 22000
Heat Index: 33°   Visibility: 6mi
Dew Point: 26°   Wind: 7mph
Humidity: 75%   Direction: 120°ESE
Pressure: 30.18"   Gusts: NA
Location:  41.1479°N, 85.4772°W
Report Text: KFWA 212154Z 12006KT 6SM HZ BKN220 01/M03 A3018 RMK AO2 SLP229 T00061033
Loading
Personal Weather Stations






























Interactive Weather Map New forecast layout! Learn more

10-Day Weather Forecast

Advertisements
Track Severe Weather on mobile